Hutchinson Municipal Airport
KHUT : now visible

Airfield :











YOU CAN JOIN US ON...

 
LOGIN :

Register | Disclaimer

   EN    FR    IT 

 









Legend :    VFR   Marginal VFR   IFR   Intensive IFR   Very Intensive IFR
Visi :
Ceiling :
>= 8 km
>= 3000ft
5 to 8 km
1000 to 3000 ft
1500m to 5 km
500 to 1000 ft
800 to 1500m
200 to 500 ft
< 800m
< 200 ft
Symbols :   Thunderstorms  Fog  Heavy snow  Heavy precipitations  Wind > 20 kt







- Airport Elevation : 1543 ft


KHUT - Hutchinson Municipal

CURRENT METAR :
  • 162152Z 17017G25KT 10SM CLR 34/16 A2997 RMK AO2 SLP122 T03390156

EXPIRED METARs :
  • 162052Z 17017G25KT 10SM CLR 34/16 A2998 RMK AO2 SLP126 T03440156 58024
  • 161952Z 16013G22KT 10SM CLR 34/17 A3001 RMK AO2 SLP135 T03390172

TAF KHUT
Valid from the 16 at 18:00 until the 17 at 18:00 UTC


161720Z 1618/1718 20015G22KT P6SM BKN250
FM170100 16012KT P6SM BKN250
FM171500 19015G25KT P6SM BKN200
No reported NOTAMs for that airfield.



MET'MAP, your aeronautical weather chart ! - Copyright ORBIFLY December 2007 - Disclaimer

ORBIFLY MET'MAP TEAM :

Programming & Development : Alexandra Zaïnal
Concept & Development : Baudouin d'Aumeries
Co-Development & Prog : Marc-Olivier Méhu
Technical & hardware support : Manuel Goepfert

Contact : metmap@orbifly.com




SOURCES & CREDITS :

   NOAA       Earth
Advisory